createdAt,value
2019-05-25T00:01:49.012Z,5.52
2019-05-25T00:06:55.360Z,5.98
2019-05-25T00:12:01.569Z,6.32
2019-05-25T00:17:07.729Z,6.34
2019-05-25T00:22:13.900Z,7.26
2019-05-25T00:27:20.065Z,7.18
2019-05-25T00:32:26.232Z,6.84
2019-05-25T00:37:32.456Z,6.72
2019-05-25T00:42:39.155Z,6.02
2019-05-25T00:47:45.545Z,7.31
2019-05-25T00:52:51.956Z,7.58
2019-05-25T00:57:58.145Z,10.48
2019-05-25T01:03:04.725Z,7.56
2019-05-25T01:08:10.949Z,6.75
2019-05-25T01:13:17.134Z,7.99
2019-05-25T01:18:23.318Z,7.94
2019-05-25T01:23:29.529Z,6.70
2019-05-25T01:28:37.871Z,7.18
2019-05-25T01:33:44.500Z,6.99
2019-05-25T01:38:50.681Z,7.27
2019-05-25T01:43:56.965Z,7.34
2019-05-25T01:49:03.138Z,8.60
2019-05-25T01:54:09.325Z,9.90
2019-05-25T01:59:15.488Z,6.26
2019-05-25T02:04:21.685Z,7.56
2019-05-25T02:09:27.908Z,7.31
2019-05-25T02:14:34.031Z,6.86
2019-05-25T02:19:40.163Z,8.12
2019-05-25T02:24:46.357Z,7.62
2019-05-25T02:29:52.480Z,7.22
2019-05-25T02:34:58.679Z,8.05
2019-05-25T02:40:04.877Z,9.86
2019-05-25T02:45:11.264Z,8.44
2019-05-25T02:50:17.811Z,9.24
2019-05-25T02:55:33.927Z,7.98
2019-05-25T03:00:30.441Z,9.86
2019-05-25T03:05:36.666Z,9.25
2019-05-25T03:10:43.104Z,7.92
2019-05-25T03:15:49.412Z,9.10
2019-05-25T03:20:55.896Z,9.90
2019-05-25T03:26:02.026Z,9.16
2019-05-25T03:31:08.224Z,10.24
2019-05-25T03:36:14.549Z,8.94
2019-05-25T03:41:20.971Z,9.95
2019-05-25T03:46:27.325Z,9.48
2019-05-25T03:51:33.452Z,9.22
2019-05-25T03:56:39.792Z,9.09
2019-05-25T04:01:46.462Z,8.86
2019-05-25T04:07:00.143Z,10.00
2019-05-25T04:11:59.967Z,9.30
2019-05-25T04:17:06.157Z,8.51
2019-05-25T04:22:12.574Z,8.49
2019-05-25T04:27:19.019Z,8.78
2019-05-25T04:32:25.472Z,10.85
2019-05-25T04:37:32.015Z,13.16
2019-05-25T04:42:38.521Z,8.90
2019-05-25T04:47:49.689Z,8.94
2019-05-25T04:52:46.055Z,8.96
2019-05-25T04:57:52.543Z,8.44
2019-05-25T05:02:59.065Z,8.51
2019-05-25T05:08:05.660Z,10.52
2019-05-25T05:13:12.048Z,7.38
2019-05-25T05:18:18.483Z,8.33
2019-05-25T05:23:25.052Z,7.92
2019-05-25T05:28:31.597Z,7.85
2019-05-25T05:33:37.863Z,8.33
2019-05-25T05:38:44.570Z,8.47
2019-05-25T05:43:51.057Z,7.87
2019-05-25T05:48:57.539Z,8.97
2019-05-25T05:54:03.909Z,8.81
2019-05-25T05:59:10.298Z,8.66
2019-05-25T06:04:16.810Z,8.13
2019-05-25T06:09:23.376Z,9.75
2019-05-25T06:14:29.949Z,8.78
2019-05-25T06:19:36.530Z,8.55
2019-05-25T06:24:43.078Z,9.98
2019-05-25T06:29:49.545Z,7.74
2019-05-25T06:34:56.089Z,10.07
2019-05-25T06:40:02.527Z,7.67
2019-05-25T06:45:09.228Z,9.17
2019-05-25T06:50:15.676Z,8.34
2019-05-25T06:55:23.435Z,9.12
2019-05-25T07:00:29.839Z,7.86
2019-05-25T07:05:36.539Z,7.35
2019-05-25T07:10:43.070Z,6.14
2019-05-25T07:15:49.515Z,6.13
2019-05-25T07:20:55.998Z,6.20
2019-05-25T07:26:02.426Z,5.99
2019-05-25T07:31:08.851Z,6.12
2019-05-25T07:36:15.310Z,6.30
2019-05-25T07:41:21.744Z,4.39
2019-05-25T07:46:28.233Z,4.07
2019-05-25T07:51:34.715Z,3.99
2019-05-25T07:56:41.143Z,3.94
2019-05-25T08:01:48.424Z,3.89
2019-05-25T08:06:54.890Z,2.94
2019-05-25T08:12:01.422Z,3.34
2019-05-25T08:17:07.898Z,4.29
2019-05-25T08:22:14.552Z,3.60
2019-05-25T08:27:21.155Z,3.61
2019-05-25T08:32:28.016Z,5.33
2019-05-25T08:37:34.562Z,4.80
2019-05-25T08:42:41.248Z,4.71
2019-05-25T08:47:47.790Z,4.37
2019-05-25T08:52:54.446Z,4.03
2019-05-25T08:58:01.008Z,3.90
2019-05-25T09:03:07.551Z,4.26
2019-05-25T09:08:14.967Z,3.88
2019-05-25T09:13:22.131Z,4.00
2019-05-25T09:18:29.225Z,4.63
2019-05-25T09:23:35.607Z,4.00
2019-05-25T09:28:41.948Z,5.18
2019-05-25T09:33:48.215Z,3.12
2019-05-25T09:38:54.584Z,4.26
2019-05-25T09:44:00.757Z,3.53
2019-05-25T09:49:06.960Z,3.27
2019-05-25T09:54:13.176Z,4.11
2019-05-25T09:59:20.590Z,13.92
2019-05-25T10:04:26.860Z,2.07
2019-05-25T10:09:33.140Z,3.00
2019-05-25T10:14:39.858Z,2.78
2019-05-25T10:19:46.065Z,3.62
2019-05-25T10:24:52.626Z,3.82
2019-05-25T10:29:59.278Z,3.24
2019-05-25T10:35:05.611Z,3.06
2019-05-25T10:40:11.986Z,4.30
2019-05-25T10:45:18.597Z,3.07
2019-05-25T10:50:25.074Z,4.41
2019-05-25T10:55:31.504Z,3.82
2019-05-25T11:00:37.839Z,3.47
2019-05-25T11:05:44.051Z,5.32
2019-05-25T11:10:50.254Z,5.26
2019-05-25T11:15:56.674Z,3.99
2019-05-25T11:21:03.100Z,4.25
2019-05-25T11:26:09.460Z,3.03
2019-05-25T11:31:16.240Z,3.40
2019-05-25T11:36:22.694Z,5.50
2019-05-25T11:41:29.134Z,4.43
2019-05-25T11:46:35.748Z,3.56
2019-05-25T11:51:42.281Z,3.83
2019-05-25T11:56:49.442Z,4.15
2019-05-25T12:01:55.896Z,3.45
2019-05-25T12:07:04.757Z,3.55
2019-05-25T12:12:11.320Z,4.88
2019-05-25T12:17:17.627Z,3.31
2019-05-25T12:22:24.019Z,2.99
2019-05-25T12:27:30.886Z,4.27
2019-05-25T12:32:37.209Z,4.09
2019-05-25T12:37:43.520Z,4.33
2019-05-25T12:42:50.115Z,4.10
2019-05-25T12:47:56.742Z,11.50
2019-05-25T12:53:03.130Z,6.68
2019-05-25T12:58:10.520Z,6.42
2019-05-25T13:03:17.078Z,5.52
2019-05-25T13:08:23.492Z,3.77
2019-05-25T13:14:30.763Z,4.87
2019-05-25T13:23:37.319Z,5.20
2019-05-25T13:28:47.279Z,4.10
2019-05-25T13:33:54.050Z,4.53
2019-05-25T13:39:00.453Z,4.24
2019-05-25T13:44:06.870Z,6.21
2019-05-25T13:49:13.432Z,6.68
2019-05-25T13:54:20.061Z,6.95
2019-05-25T13:59:26.627Z,5.48
2019-05-25T14:04:33.095Z,6.30
2019-05-25T14:09:52.569Z,5.03
2019-05-25T14:14:51.947Z,4.97
2019-05-25T14:20:00.908Z,3.97
2019-05-25T14:25:08.500Z,5.29
2019-05-25T14:30:15.053Z,4.52
2019-05-25T14:35:22.248Z,5.78
2019-05-25T14:40:29.229Z,5.26
2019-05-25T14:45:36.149Z,8.28
2019-05-25T14:50:42.970Z,4.63
2019-05-25T14:55:49.343Z,4.88
2019-05-25T15:00:56.189Z,5.65
2019-05-25T15:06:02.426Z,4.63
2019-05-25T15:11:08.756Z,5.79
2019-05-25T15:16:15.170Z,4.01
2019-05-25T15:21:26.605Z,4.69
2019-05-25T15:26:49.796Z,13.07
2019-05-25T15:31:26.495Z,4.05
2019-05-25T15:36:35.000Z,7.58
2019-05-25T15:46:44.241Z,5.91
2019-05-25T15:51:50.660Z,4.16
2019-05-25T15:56:56.778Z,5.44
2019-05-25T16:02:02.929Z,3.60
2019-05-25T16:07:10.017Z,4.43
2019-05-25T16:12:17.848Z,5.51
2019-05-25T16:17:26.156Z,4.20
2019-05-25T16:22:32.596Z,3.92
2019-05-25T16:27:38.796Z,5.96
2019-05-25T16:33:11.087Z,4.21
2019-05-25T16:37:51.395Z,3.52
2019-05-25T16:42:57.856Z,4.71
2019-05-25T16:48:04.311Z,3.35
2019-05-25T16:53:10.516Z,4.12
2019-05-25T16:58:17.021Z,3.71
2019-05-25T17:03:36.275Z,3.65
2019-05-25T17:08:32.715Z,3.81
2019-05-25T17:13:39.489Z,6.02
2019-05-25T17:18:45.965Z,4.36
2019-05-25T17:23:52.260Z,4.40
2019-05-25T17:28:58.720Z,3.71
2019-05-25T17:34:05.043Z,3.50
2019-05-25T17:39:11.372Z,3.71
2019-05-25T17:44:18.100Z,4.34
2019-05-25T17:49:24.377Z,4.84
2019-05-25T17:54:30.706Z,3.86
2019-05-25T17:59:37.122Z,4.80
2019-05-25T18:04:43.365Z,4.09
2019-05-25T18:09:50.128Z,5.03
2019-05-25T18:14:56.523Z,3.10
2019-05-25T18:20:02.757Z,3.83
2019-05-25T18:25:09.016Z,3.58
2019-05-25T18:30:15.541Z,3.81
2019-05-25T18:35:21.771Z,2.61
2019-05-25T18:40:28.234Z,3.52
2019-05-25T18:45:34.537Z,2.48
2019-05-25T18:50:41.022Z,3.72
2019-05-25T18:55:47.490Z,2.60
2019-05-25T19:00:53.708Z,4.92
2019-05-25T19:06:00.052Z,4.11
2019-05-25T19:11:06.306Z,4.17
2019-05-25T19:16:12.589Z,3.46
2019-05-25T19:21:18.788Z,2.87
2019-05-25T19:26:24.945Z,2.89
2019-05-25T19:31:31.133Z,3.53
2019-05-25T19:36:37.385Z,3.65
2019-05-25T19:41:43.716Z,3.86
2019-05-25T19:46:49.906Z,4.32
2019-05-25T19:51:55.982Z,2.98
2019-05-25T19:57:02.147Z,4.34
2019-05-25T20:02:08.366Z,3.37
2019-05-25T20:07:14.664Z,3.74
2019-05-25T20:12:21.072Z,3.38
2019-05-25T20:17:27.277Z,3.20
2019-05-25T20:22:33.458Z,3.26
2019-05-25T20:27:39.673Z,3.75
2019-05-25T20:32:46.111Z,3.26
2019-05-25T20:37:52.232Z,3.71
2019-05-25T20:42:58.502Z,3.23
2019-05-25T20:48:04.614Z,3.40
2019-05-25T20:53:10.858Z,3.57
2019-05-25T20:58:16.908Z,3.76
2019-05-25T21:03:23.064Z,3.05
2019-05-25T21:08:29.238Z,2.51
2019-05-25T21:13:35.480Z,3.03
2019-05-25T21:18:41.631Z,2.58
2019-05-25T21:24:01.340Z,2.55
2019-05-25T21:28:57.802Z,2.22
2019-05-25T21:34:03.934Z,3.04
2019-05-25T21:39:10.055Z,2.62
2019-05-25T21:44:17.183Z,3.66
2019-05-25T21:49:23.459Z,3.39
2019-05-25T21:54:29.695Z,3.46
2019-05-25T21:59:36.030Z,3.08
2019-05-25T22:04:42.205Z,3.08
2019-05-25T22:09:48.695Z,4.17
2019-05-25T22:14:54.929Z,4.49
2019-05-25T22:20:01.149Z,4.14
2019-05-25T22:25:07.514Z,4.53
2019-05-25T22:30:13.712Z,3.59
2019-05-25T22:35:19.884Z,4.87
2019-05-25T22:40:26.088Z,4.02
2019-05-25T22:45:32.619Z,4.33
2019-05-25T22:50:38.876Z,5.21
2019-05-25T22:55:45.221Z,5.54
2019-05-25T23:00:51.786Z,5.08
2019-05-25T23:05:57.988Z,5.06
2019-05-25T23:11:04.124Z,5.21
2019-05-25T23:16:10.420Z,4.81
2019-05-25T23:21:16.601Z,4.43
2019-05-25T23:26:22.753Z,4.41
2019-05-25T23:31:29.162Z,5.95
2019-05-25T23:36:35.273Z,4.99
2019-05-25T23:41:41.766Z,5.20
2019-05-25T23:46:48.050Z,7.78
2019-05-25T23:51:54.431Z,5.85
2019-05-25T23:57:00.891Z,5.48
